createdAt,value
2019-05-10T00:03:19.538Z,99.90
2019-05-10T00:06:07.189Z,99.90
2019-05-10T00:08:48.007Z,99.90
2019-05-10T00:11:31.271Z,99.90
2019-05-10T00:14:09.934Z,99.90
2019-05-10T00:16:39.841Z,99.90
2019-05-10T00:19:09.968Z,99.90
2019-05-10T00:21:39.818Z,99.90
2019-05-10T00:24:09.761Z,99.90
2019-05-10T00:26:39.688Z,99.90
2019-05-10T00:29:09.617Z,99.90
2019-05-10T00:31:39.578Z,99.90
2019-05-10T00:34:09.642Z,99.90
2019-05-10T00:36:39.544Z,99.90
2019-05-10T00:39:09.479Z,99.90
2019-05-10T00:41:39.787Z,99.90
2019-05-10T00:44:09.727Z,99.90
2019-05-10T00:46:39.651Z,99.90
2019-05-10T00:49:09.601Z,99.90
2019-05-10T00:51:39.523Z,99.90
2019-05-10T00:54:09.545Z,99.90
2019-05-10T00:56:39.458Z,99.90
2019-05-10T00:59:09.466Z,99.90
2019-05-10T01:01:39.341Z,99.90
2019-05-10T01:04:09.213Z,99.90
2019-05-10T01:06:39.029Z,99.90
2019-05-10T01:14:07.403Z,99.90
2019-05-10T01:16:37.590Z,99.90
2019-05-10T01:21:37.126Z,99.90
2019-05-10T01:26:36.317Z,99.90
2019-05-10T01:34:05.224Z,99.90
2019-05-10T01:36:35.294Z,99.90
2019-05-10T01:39:06.282Z,99.90
2019-05-10T01:41:36.270Z,99.90
2019-05-10T01:46:35.276Z,99.90
2019-05-10T01:49:05.176Z,99.90
2019-05-10T01:51:35.114Z,99.90
2019-05-10T01:54:05.070Z,99.90
2019-05-10T01:56:34.979Z,99.90
2019-05-10T01:59:05.217Z,99.90
2019-05-10T02:01:35.178Z,99.90
2019-05-10T02:09:03.738Z,99.90
2019-05-10T02:14:02.906Z,99.90
2019-05-10T02:16:32.857Z,99.90
2019-05-10T02:26:30.482Z,99.90
2019-05-10T02:31:30.698Z,99.90
2019-05-10T02:36:29.992Z,99.90
2019-05-10T02:38:59.930Z,99.90
2019-05-10T02:41:30.017Z,99.90
2019-05-10T02:43:59.928Z,99.90
2019-05-10T02:56:31.015Z,99.90
2019-05-10T03:01:31.184Z,99.90
2019-05-10T03:04:04.115Z,99.90
2019-05-10T03:06:36.483Z,99.90
2019-05-10T03:09:08.700Z,99.90
2019-05-10T03:11:47.793Z,99.90
2019-05-10T03:14:21.121Z,99.90
2019-05-10T03:16:52.123Z,99.90
2019-05-10T03:24:31.954Z,99.90
2019-05-10T03:27:01.879Z,99.90
2019-05-10T03:29:31.811Z,99.90
2019-05-10T03:32:01.811Z,99.90
2019-05-10T03:34:32.226Z,99.90
2019-05-10T03:42:00.877Z,99.90
2019-05-10T03:44:30.796Z,99.90
2019-05-10T03:47:01.128Z,99.90
2019-05-10T03:49:31.246Z,99.90
2019-05-10T03:54:30.404Z,99.90
2019-05-10T03:57:11.771Z,99.90
2019-05-10T03:59:31.972Z,99.90
2019-05-10T04:02:01.937Z,99.90
2019-05-10T04:07:01.128Z,99.90
2019-05-10T04:12:00.369Z,99.90
2019-05-10T04:16:59.533Z,99.90
2019-05-10T04:19:29.430Z,99.90
2019-05-10T04:21:59.271Z,99.90
2019-05-10T04:24:29.197Z,99.90
2019-05-10T04:26:59.104Z,99.90
2019-05-10T04:29:29.068Z,99.90
2019-05-10T04:31:58.998Z,99.90
2019-05-10T04:34:28.967Z,99.90
2019-05-10T04:36:58.871Z,99.90
2019-05-10T04:39:28.812Z,99.90
2019-05-10T04:41:58.743Z,99.90
2019-05-10T04:44:28.774Z,99.90
2019-05-10T04:46:58.693Z,99.90
2019-05-10T04:51:57.843Z,99.90
2019-05-10T04:54:30.957Z,99.90
2019-05-10T04:57:01.151Z,99.90
2019-05-10T04:59:31.090Z,99.90
2019-05-10T05:02:01.042Z,99.90
2019-05-10T05:04:31.066Z,99.90
2019-05-10T05:07:01.294Z,99.90
2019-05-10T05:12:00.500Z,99.90
2019-05-10T05:14:30.522Z,99.90
2019-05-10T05:19:29.769Z,99.90
2019-05-10T05:21:59.718Z,99.90
2019-05-10T05:24:29.671Z,99.90
2019-05-10T05:32:00.947Z,99.90
2019-05-10T05:34:29.598Z,99.90
2019-05-10T05:39:28.783Z,99.90
2019-05-10T05:41:58.780Z,99.90
2019-05-10T05:44:28.774Z,99.90
2019-05-10T05:49:27.942Z,99.90
2019-05-10T05:54:27.359Z,99.90
2019-05-10T05:56:57.294Z,99.90
2019-05-10T05:59:27.224Z,99.90
2019-05-10T06:04:27.989Z,99.90
2019-05-10T06:09:32.128Z,99.90
2019-05-10T06:12:00.315Z,99.90
2019-05-10T06:24:34.200Z,99.90
2019-05-10T06:32:02.363Z,99.90
2019-05-10T06:37:03.165Z,99.90
2019-05-10T06:39:33.113Z,99.90
2019-05-10T06:42:03.066Z,99.90
2019-05-10T06:44:33.507Z,99.90
2019-05-10T06:49:34.273Z,99.90
2019-05-10T06:52:04.201Z,99.90
2019-05-10T06:54:34.170Z,99.90
2019-05-10T07:07:02.589Z,99.90
2019-05-10T07:14:32.637Z,99.90
2019-05-10T07:17:04.413Z,99.90
2019-05-10T07:19:34.799Z,99.90
2019-05-10T07:24:35.004Z,99.90
2019-05-10T07:29:41.842Z,99.90
2019-05-10T07:32:07.563Z,99.90
2019-05-10T07:34:37.585Z,99.90
2019-05-10T07:37:07.901Z,99.90
2019-05-10T07:39:38.007Z,99.90
2019-05-10T07:42:09.061Z,99.90
2019-05-10T07:47:10.173Z,99.90
2019-05-10T07:59:50.928Z,99.90
2019-05-10T08:02:14.898Z,99.90
2019-05-10T08:07:14.450Z,99.90
2019-05-10T08:09:46.187Z,99.90
2019-05-10T08:14:50.111Z,99.90
2019-05-10T08:19:45.978Z,99.90
2019-05-10T08:22:16.211Z,99.90
2019-05-10T08:24:52.761Z,99.90
2019-05-10T08:27:17.890Z,99.90
2019-05-10T08:32:19.362Z,99.90
2019-05-10T08:34:53.079Z,99.90
2019-05-10T08:39:55.962Z,99.90
2019-05-10T08:47:27.770Z,99.90
2019-05-10T08:50:12.313Z,99.90
2019-05-10T08:52:31.710Z,99.90
2019-05-10T08:55:02.777Z,99.90
2019-05-10T09:00:38.304Z,99.90
2019-05-10T09:02:52.749Z,99.90
2019-05-10T09:07:53.594Z,99.90
2019-05-10T09:10:23.734Z,99.90
2019-05-10T09:12:57.942Z,99.90
2019-05-10T09:15:25.805Z,99.90
2019-05-10T09:17:58.246Z,99.90
2019-05-10T09:20:27.306Z,99.90
2019-05-10T09:22:57.313Z,99.90
2019-05-10T09:25:30.936Z,99.90
2019-05-10T09:28:04.484Z,99.90
2019-05-10T09:30:36.001Z,99.90
2019-05-10T09:33:10.709Z,99.90
2019-05-10T09:38:08.697Z,99.90
2019-05-10T09:40:42.595Z,99.90
2019-05-10T09:43:12.485Z,99.90
2019-05-10T09:45:42.471Z,99.90
2019-05-10T09:48:12.549Z,99.90
2019-05-10T09:50:47.116Z,99.90
2019-05-10T09:53:21.748Z,99.90
2019-05-10T09:55:55.036Z,99.90
2019-05-10T10:05:48.265Z,99.90
2019-05-10T10:08:18.376Z,99.90
2019-05-10T10:10:48.504Z,99.90
2019-05-10T10:13:35.883Z,99.90
2019-05-10T10:18:25.087Z,99.90
2019-05-10T10:25:52.913Z,99.90
2019-05-10T10:28:22.929Z,99.90
2019-05-10T10:33:28.068Z,99.90
2019-05-10T10:38:30.615Z,99.90
2019-05-10T10:40:58.019Z,99.90
2019-05-10T10:45:57.650Z,99.90
2019-05-10T10:53:28.815Z,99.90
2019-05-10T10:56:03.595Z,99.90
2019-05-10T10:58:30.302Z,99.90
2019-05-10T11:01:00.521Z,99.90
2019-05-10T11:03:30.930Z,99.90
2019-05-10T11:06:01.923Z,99.90
2019-05-10T11:08:33.181Z,99.90
2019-05-10T11:11:03.734Z,99.90
2019-05-10T11:13:45.407Z,99.90
2019-05-10T11:23:39.029Z,99.90
2019-05-10T11:26:06.160Z,99.90
2019-05-10T11:28:43.964Z,99.90
2019-05-10T11:33:36.885Z,99.90
2019-05-10T11:38:37.675Z,99.90
2019-05-10T11:41:13.606Z,99.90
2019-05-10T11:46:08.280Z,99.90
2019-05-10T11:48:39.822Z,99.90
2019-05-10T11:51:12.350Z,99.90
2019-05-10T11:56:14.113Z,99.90
2019-05-10T11:58:49.847Z,99.90
2019-05-10T12:01:18.996Z,99.90
2019-05-10T12:03:46.166Z,99.90
2019-05-10T12:06:16.098Z,99.90
2019-05-10T12:08:46.032Z,99.90
2019-05-10T12:13:47.490Z,99.90
2019-05-10T12:16:17.902Z,99.90
2019-05-10T12:21:21.783Z,99.90
2019-05-10T12:23:55.963Z,99.90
2019-05-10T12:26:05.229Z,99.90
2019-05-10T12:26:05.395Z,99.90
2019-05-10T12:28:59.406Z,99.90
2019-05-10T12:31:26.042Z,99.90
2019-05-10T12:34:02.491Z,99.90
2019-05-10T12:36:27.955Z,99.90
2019-05-10T12:38:58.963Z,99.90
2019-05-10T12:41:31.634Z,99.90
2019-05-10T12:44:04.180Z,98.90
2019-05-10T12:46:32.709Z,99.60
2019-05-10T12:49:04.870Z,99.90
2019-05-10T12:51:34.194Z,99.90
2019-05-10T12:54:04.114Z,99.90
2019-05-10T12:56:35.148Z,99.90
2019-05-10T12:59:05.624Z,99.90
2019-05-10T13:01:35.585Z,99.90
2019-05-10T13:04:13.424Z,99.90
2019-05-10T13:06:37.076Z,99.90
2019-05-10T13:09:07.873Z,99.10
2019-05-10T13:11:37.868Z,98.30
2019-05-10T13:14:09.741Z,96.20
2019-05-10T13:16:39.830Z,94.30
2019-05-10T13:19:14.215Z,96.50
2019-05-10T13:21:41.327Z,95.00
2019-05-10T13:24:11.245Z,94.50
2019-05-10T13:26:41.137Z,92.00
2019-05-10T13:29:11.105Z,90.80
2019-05-10T13:31:42.616Z,90.80
2019-05-10T13:34:12.625Z,84.00
2019-05-10T13:36:42.547Z,79.90
2019-05-10T13:39:12.950Z,81.00
2019-05-10T13:41:42.977Z,75.10
2019-05-10T13:44:12.903Z,75.20
2019-05-10T13:46:42.821Z,77.30
2019-05-10T13:49:12.859Z,73.60
2019-05-10T13:51:42.802Z,76.40
2019-05-10T13:54:12.725Z,78.50
2019-05-10T13:56:45.518Z,78.70
2019-05-10T13:59:17.786Z,77.90
2019-05-10T14:01:49.535Z,77.60
2019-05-10T14:04:18.529Z,77.90
2019-05-10T14:06:48.557Z,73.00
2019-05-10T14:09:20.925Z,72.30
2019-05-10T14:11:50.216Z,72.80
2019-05-10T14:14:26.095Z,73.70
2019-05-10T14:16:52.464Z,75.30
2019-05-10T14:21:54.154Z,79.70
2019-05-10T14:24:24.132Z,82.40
2019-05-10T14:26:57.322Z,86.10
2019-05-10T14:29:33.956Z,86.20
2019-05-10T14:31:57.503Z,85.80
2019-05-10T14:36:56.579Z,91.50
2019-05-10T14:39:26.514Z,88.70
2019-05-10T14:49:25.228Z,87.00
2019-05-10T14:51:59.715Z,89.30
2019-05-10T14:54:41.521Z,88.90
2019-05-10T14:56:58.356Z,86.70
2019-05-10T14:59:28.650Z,87.50
2019-05-10T15:01:58.602Z,88.20
2019-05-10T15:11:57.894Z,88.20
2019-05-10T15:14:27.855Z,89.20
2019-05-10T15:19:30.958Z,91.40
2019-05-10T15:21:58.695Z,91.70
2019-05-10T15:26:57.883Z,93.40
2019-05-10T15:29:27.883Z,93.30
2019-05-10T15:31:57.845Z,92.20
2019-05-10T15:39:28.988Z,93.50
2019-05-10T15:41:59.098Z,93.40
2019-05-10T15:44:31.288Z,95.80
2019-05-10T15:47:00.767Z,95.00
2019-05-10T15:49:30.653Z,95.00
2019-05-10T15:54:31.423Z,98.10
2019-05-10T15:57:01.330Z,98.40
2019-05-10T15:59:31.263Z,98.10
2019-05-10T16:02:01.221Z,98.00
2019-05-10T16:04:31.159Z,99.50
2019-05-10T16:07:01.131Z,99.90
2019-05-10T16:12:02.363Z,99.80
2019-05-10T16:17:02.703Z,99.90
2019-05-10T16:19:32.646Z,99.90
2019-05-10T16:22:02.602Z,99.90
2019-05-10T16:24:32.479Z,99.90
2019-05-10T16:27:03.221Z,99.90
2019-05-10T16:29:39.696Z,99.90
2019-05-10T16:32:04.830Z,99.90
2019-05-10T16:34:34.766Z,97.50
2019-05-10T16:39:33.934Z,96.30
2019-05-10T16:44:33.025Z,96.70
2019-05-10T16:47:03.070Z,96.90
2019-05-10T16:49:33.083Z,97.10
2019-05-10T16:52:03.004Z,97.60
2019-05-10T16:54:33.043Z,96.00
2019-05-10T16:57:02.944Z,96.00
2019-05-10T16:59:35.164Z,96.40
2019-05-10T17:04:37.383Z,97.40
2019-05-10T17:07:12.886Z,97.10
2019-05-10T17:09:39.777Z,96.80
2019-05-10T17:12:09.744Z,96.80
2019-05-10T17:14:39.666Z,97.10
2019-05-10T17:17:09.589Z,97.40
2019-05-10T17:22:08.638Z,97.90
2019-05-10T17:24:38.589Z,97.80
2019-05-10T17:27:08.515Z,97.90
2019-05-10T17:29:38.514Z,97.70
2019-05-10T17:32:08.409Z,98.40
2019-05-10T17:34:38.292Z,99.00
2019-05-10T17:37:08.126Z,98.00
2019-05-10T17:42:07.355Z,98.50
2019-05-10T17:47:07.737Z,99.50
2019-05-10T17:52:07.211Z,99.90
2019-05-10T17:54:39.339Z,98.90
2019-05-10T17:57:10.728Z,99.40
2019-05-10T18:04:38.970Z,99.90
2019-05-10T18:07:08.902Z,99.90
2019-05-10T18:09:38.833Z,99.90
2019-05-10T18:12:08.797Z,99.90
2019-05-10T18:14:39.524Z,99.90
2019-05-10T18:17:09.551Z,99.90
2019-05-10T18:19:39.709Z,99.90
2019-05-10T18:22:09.738Z,99.90
2019-05-10T18:24:42.287Z,99.90
2019-05-10T18:27:11.290Z,99.90
2019-05-10T18:29:41.270Z,99.90
2019-05-10T18:32:11.324Z,99.90
2019-05-10T18:34:41.403Z,99.90
2019-05-10T18:39:42.226Z,99.90
2019-05-10T18:42:13.440Z,99.90
2019-05-10T18:44:45.932Z,99.90
2019-05-10T18:47:15.431Z,99.90
2019-05-10T18:49:45.475Z,99.90
2019-05-10T18:52:15.427Z,99.90
2019-05-10T18:54:45.439Z,99.90
2019-05-10T18:57:18.991Z,99.90
2019-05-10T18:59:47.418Z,99.90
2019-05-10T19:02:18.383Z,99.90
2019-05-10T19:04:51.946Z,99.90
2019-05-10T19:07:20.575Z,99.90
2019-05-10T19:09:50.593Z,99.90
2019-05-10T19:12:22.630Z,99.90
2019-05-10T19:14:52.069Z,99.90
2019-05-10T19:17:22.281Z,99.90
2019-05-10T19:19:52.301Z,99.90
2019-05-10T19:22:22.294Z,99.90
2019-05-10T19:27:24.910Z,99.90
2019-05-10T19:32:22.895Z,99.90
2019-05-10T19:34:57.185Z,99.90
2019-05-10T19:37:31.332Z,99.90
2019-05-10T19:39:56.037Z,99.90
2019-05-10T19:42:26.076Z,99.90
2019-05-10T19:44:56.006Z,99.90
2019-05-10T19:47:25.960Z,99.90
2019-05-10T19:49:56.008Z,99.90
2019-05-10T19:54:56.825Z,99.90
2019-05-10T19:57:26.725Z,99.90
2019-05-10T19:59:56.833Z,99.90
2019-05-10T20:02:26.738Z,99.90
2019-05-10T20:04:58.788Z,99.90
2019-05-10T20:07:44.081Z,99.90
2019-05-10T20:10:00.341Z,99.90
2019-05-10T20:12:30.991Z,99.90
2019-05-10T20:15:00.930Z,99.90
2019-05-10T20:17:30.987Z,99.90
2019-05-10T20:20:00.953Z,99.90
2019-05-10T20:22:30.895Z,99.90
2019-05-10T20:27:30.040Z,99.90
2019-05-10T20:30:00.546Z,99.90
2019-05-10T20:32:30.477Z,99.90
2019-05-10T20:35:00.738Z,99.90
2019-05-10T20:37:30.686Z,99.90
2019-05-10T20:40:00.638Z,99.90
2019-05-10T20:42:30.550Z,99.90
2019-05-10T20:45:07.537Z,99.90
2019-05-10T20:47:32.020Z,99.90
2019-05-10T20:50:01.966Z,99.90
2019-05-10T20:52:31.902Z,99.90
2019-05-10T20:55:02.306Z,99.90
2019-05-10T20:57:32.230Z,99.90
2019-05-10T21:00:02.161Z,99.90
2019-05-10T21:02:35.556Z,99.90
2019-05-10T21:05:05.939Z,99.90
2019-05-10T21:07:35.866Z,99.90
2019-05-10T21:10:06.208Z,99.90
2019-05-10T21:12:36.178Z,99.90
2019-05-10T21:15:06.806Z,99.90
2019-05-10T21:17:36.761Z,99.90
2019-05-10T21:22:35.943Z,99.90
2019-05-10T21:25:06.289Z,99.90
2019-05-10T21:27:36.241Z,99.90
2019-05-10T21:30:06.706Z,99.90
2019-05-10T21:32:36.674Z,99.90
2019-05-10T21:37:36.223Z,99.90
2019-05-10T21:40:06.954Z,99.90
2019-05-10T21:45:06.713Z,99.90
2019-05-10T21:47:50.596Z,99.90
2019-05-10T21:50:08.708Z,99.90
2019-05-10T21:57:37.142Z,99.90
2019-05-10T22:00:07.545Z,99.90
2019-05-10T22:07:36.177Z,99.90
2019-05-10T22:10:07.791Z,99.90
2019-05-10T22:12:37.797Z,99.90
2019-05-10T22:17:37.258Z,99.90
2019-05-10T22:20:07.986Z,99.90
2019-05-10T22:22:37.984Z,99.90
2019-05-10T22:25:07.935Z,99.90
2019-05-10T22:27:37.926Z,99.90
2019-05-10T22:32:37.554Z,99.90
2019-05-10T22:35:08.094Z,99.90
2019-05-10T22:37:38.174Z,99.90
2019-05-10T22:42:37.422Z,99.90
2019-05-10T22:47:36.774Z,99.90
2019-05-10T23:02:33.554Z,99.90
2019-05-10T23:05:03.497Z,99.90
2019-05-10T23:07:33.490Z,99.90
2019-05-10T23:10:03.542Z,99.90
2019-05-10T23:12:33.537Z,99.90
2019-05-10T23:17:32.839Z,99.90
2019-05-10T23:20:02.826Z,99.90
2019-05-10T23:22:32.803Z,99.90
2019-05-10T23:25:02.755Z,99.90
2019-05-10T23:27:32.713Z,99.90
2019-05-10T23:30:02.712Z,99.90
2019-05-10T23:32:32.647Z,99.90
2019-05-10T23:35:02.666Z,99.90
2019-05-10T23:37:32.651Z,99.90
2019-05-10T23:40:02.625Z,99.90
2019-05-10T23:45:01.867Z,99.90
2019-05-10T23:50:01.094Z,99.90
2019-05-10T23:55:00.359Z,99.90
2019-05-10T23:57:30.290Z,99.90
